createdAt,value
2019-02-02T09:25:21.536Z,57.67
2019-02-02T09:30:35.705Z,55.63
2019-02-02T09:35:41.825Z,54.67
2019-02-02T09:40:47.952Z,55.40
2019-02-02T09:45:54.809Z,52.90
2019-02-02T09:51:00.762Z,51.90
2019-02-02T09:56:07.102Z,52.90
2019-02-02T10:01:13.198Z,51.87
2019-02-02T10:06:19.233Z,49.03
2019-02-02T10:11:25.400Z,50.40
2019-02-02T10:16:31.469Z,50.63
2019-02-02T10:21:37.522Z,49.70
2019-02-02T10:26:43.494Z,50.03
2019-02-02T10:31:49.691Z,48.33
2019-02-02T10:36:56.014Z,47.90
2019-02-02T10:42:02.172Z,47.37
2019-02-02T10:47:08.578Z,46.87
2019-02-02T10:52:14.640Z,45.37
2019-02-02T10:57:23.062Z,45.33
2019-02-02T11:02:29.602Z,44.10
2019-02-02T11:07:36.977Z,41.80
2019-02-02T11:12:43.244Z,40.43
2019-02-02T11:17:49.552Z,38.87
2019-02-02T11:22:55.975Z,40.80
2019-02-02T11:28:02.486Z,37.97
2019-02-02T11:33:08.875Z,36.30
2019-02-02T11:38:15.117Z,32.20
2019-02-02T11:43:21.279Z,31.77
2019-02-02T11:48:27.772Z,35.30
2019-02-02T11:53:33.873Z,34.47
2019-02-02T11:58:40.087Z,33.10
2019-02-02T12:03:46.238Z,30.23
2019-02-02T12:08:52.690Z,31.53
2019-02-02T12:13:58.605Z,27.83
2019-02-02T12:19:04.827Z,27.40
2019-02-02T12:24:14.318Z,29.17
2019-02-02T12:29:19.445Z,27.63
2019-02-02T12:34:25.577Z,26.37
2019-02-02T12:39:31.685Z,26.83
2019-02-02T12:44:37.786Z,27.10
2019-02-02T12:49:43.694Z,24.80
2019-02-02T12:54:49.709Z,25.60
2019-02-02T12:59:55.906Z,25.53
2019-02-02T13:05:03.729Z,24.73
2019-02-02T13:10:12.925Z,23.87
2019-02-02T13:15:19.040Z,26.57
2019-02-02T13:20:25.125Z,27.17
2019-02-02T13:25:31.176Z,27.27
2019-02-02T13:30:37.853Z,26.87
2019-02-02T13:35:46.017Z,28.93
2019-02-02T13:40:52.702Z,28.27
2019-02-02T13:45:58.803Z,27.57
2019-02-02T13:51:06.062Z,27.97
2019-02-02T13:56:12.462Z,29.93
2019-02-02T14:01:18.601Z,27.47
2019-02-02T14:06:24.610Z,31.03
2019-02-02T14:11:30.653Z,31.00
2019-02-02T14:16:36.621Z,34.27
2019-02-02T14:21:42.761Z,32.27
2019-02-02T14:26:48.674Z,33.23
2019-02-02T14:31:54.711Z,32.37
2019-02-02T14:37:00.805Z,32.80
2019-02-02T14:42:06.834Z,32.40
2019-02-02T14:47:13.037Z,33.60
2019-02-02T14:52:19.055Z,33.93
2019-02-02T14:57:25.036Z,32.80
2019-02-02T15:02:31.054Z,32.50
2019-02-02T15:07:37.215Z,31.67
2019-02-02T15:12:43.329Z,32.00
2019-02-02T15:17:52.221Z,26.93
2019-02-02T15:22:58.800Z,27.37
2019-02-02T15:28:05.104Z,26.50
2019-02-02T15:33:11.120Z,24.87
2019-02-02T15:38:19.127Z,27.23
2019-02-02T15:43:25.767Z,27.83
2019-02-02T15:48:31.820Z,26.80
2019-02-02T15:53:37.985Z,28.30
2019-02-02T15:58:43.896Z,28.20
2019-02-02T16:03:50.122Z,28.67
2019-02-02T16:08:56.409Z,28.00
2019-02-02T16:14:02.943Z,27.87
2019-02-02T16:19:10.164Z,28.50
2019-02-02T16:24:16.197Z,29.80
2019-02-02T16:29:22.250Z,30.23
2019-02-02T16:34:28.471Z,30.50
2019-02-02T16:39:34.580Z,29.93
2019-02-02T16:44:41.749Z,30.47
2019-02-02T16:49:47.852Z,29.73
2019-02-02T16:54:53.978Z,30.07
2019-02-02T17:00:00.760Z,27.70
2019-02-02T17:05:08.746Z,29.50
2019-02-02T17:10:17.906Z,27.93
2019-02-02T17:15:24.011Z,29.20
2019-02-02T17:20:35.612Z,28.80
2019-02-02T17:25:41.787Z,29.60
2019-02-02T17:30:47.911Z,30.10
2019-02-02T17:35:53.873Z,30.90
2019-02-02T17:40:59.882Z,31.30
2019-02-02T17:46:08.176Z,31.20
2019-02-02T17:51:14.575Z,31.10
2019-02-02T17:56:20.565Z,31.53
2019-02-02T18:01:27.412Z,28.70
2019-02-02T18:06:33.643Z,28.70
2019-02-02T18:11:39.738Z,28.83
2019-02-02T18:16:45.728Z,26.80
2019-02-02T18:21:51.744Z,27.20
2019-02-02T18:26:57.808Z,26.07
2019-02-02T18:32:12.705Z,24.93
2019-02-02T18:37:11.763Z,25.57
2019-02-02T18:42:17.828Z,25.73
2019-02-02T18:47:23.890Z,26.07
2019-02-02T18:52:30.051Z,26.83
2019-02-02T18:57:37.201Z,26.03
2019-02-02T19:02:44.232Z,26.53
2019-02-02T19:07:50.291Z,26.87
2019-02-02T19:12:56.340Z,27.63
2019-02-02T19:18:03.463Z,28.20
2019-02-02T19:23:10.785Z,28.07
2019-02-02T19:28:16.963Z,26.60
2019-02-02T19:33:23.013Z,27.87
2019-02-02T19:38:29.184Z,27.17
2019-02-02T19:43:35.277Z,27.93
2019-02-02T19:48:41.441Z,28.13
2019-02-02T19:53:47.845Z,29.30
2019-02-02T19:58:54.949Z,26.53
2019-02-02T20:04:01.325Z,27.93
2019-02-02T20:09:09.144Z,27.00
2019-02-02T20:14:15.328Z,24.43
2019-02-02T20:19:21.530Z,24.67
2019-02-02T20:24:27.672Z,24.20
2019-02-02T20:29:33.758Z,23.13
2019-02-02T20:34:39.805Z,24.30
2019-02-02T20:39:45.781Z,24.70
2019-02-02T20:44:51.757Z,26.40
2019-02-02T20:49:58.076Z,28.93
2019-02-02T20:55:04.745Z,28.40
2019-02-02T21:00:14.845Z,29.50
2019-02-02T21:05:21.139Z,29.43
2019-02-02T21:10:27.246Z,29.87
2019-02-02T21:15:33.352Z,28.47
2019-02-02T21:20:39.462Z,27.37
2019-02-02T21:25:45.501Z,27.43
2019-02-02T21:30:51.958Z,28.23
2019-02-02T21:36:04.124Z,28.10
2019-02-02T21:41:07.940Z,29.73
2019-02-02T21:46:14.327Z,28.60
2019-02-02T21:51:20.392Z,29.03
2019-02-02T21:56:26.446Z,27.90
2019-02-02T22:01:32.513Z,28.07
2019-02-02T22:06:38.551Z,26.97
2019-02-02T22:11:45.065Z,28.13
2019-02-02T22:16:51.133Z,26.40
2019-02-02T22:21:57.086Z,25.80
2019-02-02T22:27:03.131Z,27.57
2019-02-02T22:32:09.197Z,26.40
2019-02-02T22:37:15.144Z,26.23
2019-02-02T22:42:21.687Z,28.13
2019-02-02T22:47:28.005Z,27.87
2019-02-02T22:52:34.163Z,28.17
2019-02-02T22:57:41.579Z,31.07
2019-02-02T23:02:47.643Z,29.60
2019-02-02T23:08:15.025Z,31.03
2019-02-02T23:14:05.834Z,33.17
2019-02-02T23:19:12.147Z,30.47
2019-02-02T23:24:18.199Z,31.10
2019-02-02T23:29:24.446Z,31.53
2019-02-02T23:34:30.592Z,31.33
2019-02-02T23:39:37.173Z,30.30
2019-02-02T23:44:44.048Z,29.70
2019-02-02T23:49:50.149Z,27.53
2019-02-02T23:54:56.279Z,26.27
